Terminal Aerodrome Forecast
Issued by NWS

Home | Current Version | Previous Version | Text Only | Print | Product List | Glossary On
Versions: 1 2 3 4 5 6 7 8 9 10 11 12 13 14 15 16 17 18 19
000
FTUS44 KHGX 171008 AAA
TAFSGR
TAF AMD
KSGR 171008Z 1710/1806 35005KT P6SM OVC005
      TEMPO 1711/1714 5SM BR BKN003 OVC015
     FM171500 01003KT 6SM BR BKN015 BKN250
     FM171800 12005KT P6SM FEW015 BKN250
     FM180500 VRB04KT 4SM BR BKN015=

USA.gov is the U.S. government's official web portal to all federal, state and local government web resources and services.